Time;durP1;ratioP1;P1;durP2;ratioP2;P2;SDS_P1;SDS_P2;PMS_P1;PMS_P2;Temp;Humidity;BMP_temperature;BMP_pressure;BME280_temperature;BME280_humidity;BME280_pressure;Samples;Min_cycle;Max_cycle;Signal;HPM_P1;HPM_P2
2020/12/14 00:02:17;;;;;;;4.83;3.67;;;6.40;99.90;;;;;;5033755;28;20294;-65
2020/12/14 00:04:43;;;;;;;7.10;4.20;;;6.40;99.90;;;;;;5034414;28;20523;-64
2020/12/14 00:07:09;;;;;;;5.33;3.97;;;6.40;99.90;;;;;;5034113;28;20206;-65
2020/12/14 00:09:35;;;;;;;5.73;3.40;;;6.40;99.90;;;;;;5034084;28;20211;-65
2020/12/14 00:12:02;;;;;;;5.83;4.37;;;6.40;99.90;;;;;;5032457;28;20495;-64
2020/12/14 00:14:28;;;;;;;6.63;3.70;;;6.40;99.90;;;;;;5034049;28;20179;-65
2020/12/14 00:16:54;;;;;;;7.43;4.73;;;6.40;99.90;;;;;;5033802;28;20711;-64
2020/12/14 00:19:20;;;;;;;6.00;3.43;;;6.40;99.90;;;;;;5034127;28;20702;-64
2020/12/14 00:21:46;;;;;;;5.50;3.87;;;6.40;99.90;;;;;;5033790;28;20683;-65
2020/12/14 00:24:12;;;;;;;7.03;3.70;;;6.40;99.90;;;;;;5034017;28;20172;-64
2020/12/14 00:26:37;;;;;;;5.07;3.57;;;6.40;99.90;;;;;;5033544;28;20180;-65
2020/12/14 00:29:03;;;;;;;4.43;3.77;;;6.40;99.90;;;;;;5033907;28;20266;-64
2020/12/14 00:31:29;;;;;;;6.03;4.00;;;6.40;99.90;;;;;;5033140;28;20272;-64
2020/12/14 00:33:54;;;;;;;10.10;3.43;;;6.40;99.90;;;;;;5033980;28;20178;-65
2020/12/14 00:36:20;;;;;;;5.93;3.50;;;6.50;99.90;;;;;;5033464;28;20195;-64
2020/12/14 00:38:46;;;;;;;5.60;3.57;;;6.50;99.90;;;;;;5033899;28;20225;-64
2020/12/14 00:41:18;;;;;;;4.90;2.90;;;6.50;99.90;;;;;;5033219;28;20171;-65
2020/12/14 00:43:44;;;;;;;5.97;3.53;;;6.50;99.90;;;;;;5033459;28;20297;-65
2020/12/14 00:46:17;;;;;;;5.30;3.40;;;6.50;99.90;;;;;;5033707;28;20179;-65
2020/12/14 00:48:42;;;;;;;7.50;2.87;;;6.60;99.90;;;;;;5033587;28;20211;-64
2020/12/14 00:51:08;;;;;;;6.13;3.23;;;6.60;99.90;;;;;;5033278;28;20217;-64
2020/12/14 00:53:34;;;;;;;5.83;2.90;;;6.60;99.90;;;;;;5033119;28;20182;-65
2020/12/14 00:56:04;;;;;;;4.27;2.93;;;6.60;99.90;;;;;;5033879;28;20172;-65
2020/12/14 00:58:30;;;;;;;4.33;3.03;;;6.60;99.90;;;;;;5033001;28;20237;-65
2020/12/14 01:00:56;;;;;;;6.90;3.20;;;6.60;99.90;;;;;;5033119;28;20182;-65
2020/12/14 01:03:23;;;;;;;4.83;3.47;;;6.60;99.90;;;;;;5032851;28;20215;-65
2020/12/14 01:05:50;;;;;;;6.67;3.03;;;6.60;99.90;;;;;;5033222;28;20172;-65
2020/12/14 01:08:16;;;;;;;5.53;3.30;;;6.60;99.90;;;;;;5033031;28;20183;-64
2020/12/14 01:10:42;;;;;;;8.37;3.03;;;6.60;99.90;;;;;;5032855;28;20179;-65
2020/12/14 01:13:07;;;;;;;4.90;2.93;;;6.50;99.90;;;;;;5032759;28;20253;-65
2020/12/14 01:15:33;;;;;;;4.03;2.83;;;6.50;99.90;;;;;;5032946;28;20583;-65
2020/12/14 01:17:59;;;;;;;4.63;2.93;;;6.50;99.90;;;;;;5032887;28;20210;-64
2020/12/14 01:20:24;;;;;;;5.33;3.03;;;6.50;99.90;;;;;;5032524;28;20199;-64
2020/12/14 01:22:50;;;;;;;5.00;3.10;;;6.50;99.90;;;;;;5032165;28;20214;-65
2020/12/14 01:25:16;;;;;;;5.03;3.03;;;6.50;99.90;;;;;;5032916;28;20167;-64
2020/12/14 01:27:41;;;;;;;6.03;2.83;;;6.60;99.90;;;;;;5032383;28;20214;-64
2020/12/14 01:30:07;;;;;;;5.83;3.07;;;6.60;99.90;;;;;;5032613;28;20167;-64
2020/12/14 01:32:32;;;;;;;7.07;2.87;;;6.70;99.90;;;;;;5032216;28;20305;-64
2020/12/14 01:34:58;;;;;;;7.40;2.80;;;6.70;99.90;;;;;;5032675;28;20206;-65
2020/12/14 01:37:23;;;;;;;6.80;3.57;;;6.70;99.90;;;;;;5032281;28;20228;-65
2020/12/14 01:39:49;;;;;;;6.73;3.30;;;6.60;99.90;;;;;;5032200;28;20269;-64
2020/12/14 01:42:15;;;;;;;4.40;3.07;;;6.60;99.90;;;;;;5032188;28;20192;-64
2020/12/14 01:44:40;;;;;;;7.27;2.73;;;6.50;99.90;;;;;;5032349;28;20171;-64
2020/12/14 01:47:06;;;;;;;6.93;3.20;;;6.50;99.90;;;;;;5032536;28;20198;-64
2020/12/14 01:49:32;;;;;;;6.33;2.93;;;6.40;99.90;;;;;;5032084;28;20203;-64
2020/12/14 01:51:57;;;;;;;6.13;2.87;;;6.40;99.90;;;;;;5032181;28;20676;-65
2020/12/14 01:54:29;;;;;;;4.17;2.80;;;6.40;99.90;;;;;;5032218;28;20182;-65
2020/12/14 01:56:55;;;;;;;4.87;2.97;;;6.40;99.90;;;;;;5012516;28;20176;-64
2020/12/14 01:59:22;;;;;;;8.60;3.17;;;6.40;99.90;;;;;;5012345;28;20697;-64
2020/12/14 02:01:48;;;;;;;4.47;2.83;;;6.40;99.90;;;;;;5030808;28;20229;-64
2020/12/14 02:04:14;;;;;;;5.33;3.00;;;6.30;99.90;;;;;;5032109;28;20518;-64
2020/12/14 02:06:39;;;;;;;4.37;3.40;;;6.40;99.90;;;;;;5031797;28;20186;-65
2020/12/14 02:09:06;;;;;;;5.17;2.93;;;6.30;99.90;;;;;;5030889;28;20182;-64
2020/12/14 02:11:31;;;;;;;7.30;3.60;;;6.30;99.90;;;;;;5031353;28;20573;-65
2020/12/14 02:13:57;;;;;;;7.10;3.53;;;6.30;99.90;;;;;;5032020;28;20175;-64
2020/12/14 02:16:23;;;;;;;4.73;2.80;;;6.30;99.90;;;;;;5031739;28;20266;-64
2020/12/14 02:18:49;;;;;;;4.37;3.20;;;6.40;99.90;;;;;;5031762;28;20179;-64
2020/12/14 02:21:17;;;;;;;5.60;2.73;;;6.30;99.90;;;;;;5031268;28;20176;-64
2020/12/14 02:23:44;;;;;;;5.37;2.60;;;6.30;99.90;;;;;;5031900;28;20172;-64
2020/12/14 02:26:10;;;;;;;4.53;3.00;;;6.30;99.90;;;;;;5031729;28;20175;-65
2020/12/14 02:28:36;;;;;;;9.23;3.13;;;6.20;99.90;;;;;;5031726;28;20266;-64
2020/12/14 02:31:02;;;;;;;3.83;2.90;;;6.20;99.90;;;;;;5031177;28;20180;-64
2020/12/14 02:33:27;;;;;;;3.83;2.57;;;6.10;99.90;;;;;;5031370;28;20253;-65
2020/12/14 02:35:53;;;;;;;5.07;2.67;;;6.10;99.90;;;;;;5030881;28;20174;-64
2020/12/14 02:38:18;;;;;;;8.37;2.93;;;6.10;99.90;;;;;;5031625;28;20168;-64
2020/12/14 02:40:46;;;;;;;6.57;3.70;;;6.10;99.90;;;;;;5031048;28;20223;-64
2020/12/14 02:43:12;;;;;;;6.77;3.10;;;6.10;99.90;;;;;;5031594;28;20223;-65
2020/12/14 02:45:38;;;;;;;8.70;3.53;;;6.10;99.90;;;;;;5031273;28;20187;-65
2020/12/14 02:48:04;;;;;;;2.53;2.33;;;6.10;99.90;;;;;;5031585;28;20250;-64
2020/12/14 02:50:30;;;;;;;7.27;2.87;;;6.10;99.90;;;;;;5030848;28;20184;-65
2020/12/14 02:52:56;;;;;;;5.60;2.70;;;6.10;99.90;;;;;;5031398;28;20211;-65
2020/12/14 02:55:22;;;;;;;6.83;3.03;;;6.00;99.90;;;;;;5030130;28;20171;-64
2020/12/14 02:57:48;;;;;;;6.07;2.90;;;6.00;99.90;;;;;;5031154;28;20488;-64
2020/12/14 03:00:14;;;;;;;4.63;2.60;;;6.00;99.90;;;;;;5030711;28;20214;-64
2020/12/14 03:02:39;;;;;;;3.70;2.67;;;6.00;99.90;;;;;;5031240;28;20218;-65
2020/12/14 03:05:05;;;;;;;6.53;2.57;;;5.90;99.90;;;;;;5031139;28;20175;-65
2020/12/14 03:07:31;;;;;;;5.90;2.97;;;5.90;99.90;;;;;;5031302;28;20168;-65
2020/12/14 03:09:56;;;;;;;4.77;2.67;;;5.90;99.90;;;;;;5031112;28;20186;-64
2020/12/14 03:12:22;;;;;;;4.73;2.67;;;5.90;99.90;;;;;;5031144;28;20750;-64
2020/12/14 03:14:47;;;;;;;4.33;2.63;;;5.90;99.90;;;;;;5031125;28;20187;-65
2020/12/14 03:17:13;;;;;;;5.53;2.87;;;5.90;99.90;;;;;;5031249;28;20183;-65
2020/12/14 03:19:39;;;;;;;7.03;2.50;;;5.90;99.90;;;;;;5029524;28;20203;-64
2020/12/14 03:22:04;;;;;;;8.10;2.73;;;5.90;99.90;;;;;;5030955;28;20191;-64
2020/12/14 03:24:30;;;;;;;3.87;2.43;;;5.90;99.90;;;;;;5030883;28;20266;-64
2020/12/14 03:26:55;;;;;;;3.07;2.50;;;5.90;99.90;;;;;;5029859;28;20168;-65
2020/12/14 03:29:21;;;;;;;4.27;2.90;;;5.90;99.90;;;;;;5030907;28;20180;-64
2020/12/14 03:31:47;;;;;;;4.50;2.50;;;5.90;99.90;;;;;;5030733;28;20684;-64
2020/12/14 03:34:12;;;;;;;5.13;2.43;;;5.90;99.90;;;;;;5030952;28;20184;-64
2020/12/14 03:36:38;;;;;;;5.27;2.40;;;5.90;99.90;;;;;;5031120;28;20649;-64
2020/12/14 03:39:04;;;;;;;3.97;2.43;;;6.00;99.90;;;;;;5030641;28;20559;-65
2020/12/14 03:41:30;;;;;;;5.77;3.00;;;6.00;99.90;;;;;;5030781;28;20592;-65
2020/12/14 03:43:55;;;;;;;8.10;2.90;;;6.00;99.90;;;;;;5029613;28;20172;-65
2020/12/14 03:46:27;;;;;;;7.17;3.20;;;6.10;99.90;;;;;;5033263;28;20163;-65
2020/12/14 03:48:54;;;;;;;4.80;2.70;;;6.10;99.90;;;;;;5034636;28;20199;-65
2020/12/14 03:51:21;;;;;;;3.17;2.20;;;6.10;99.90;;;;;;5033855;28;20250;-65
2020/12/14 03:53:47;;;;;;;4.03;2.40;;;6.00;99.90;;;;;;5034508;28;20191;-65
2020/12/14 03:56:13;;;;;;;6.37;2.27;;;6.00;99.90;;;;;;5034336;28;20215;-65
2020/12/14 03:58:38;;;;;;;5.30;2.43;;;6.00;99.90;;;;;;5034422;28;20600;-65
2020/12/14 04:01:05;;;;;;;3.90;2.10;;;6.00;99.90;;;;;;5033816;28;20645;-65
2020/12/14 04:03:30;;;;;;;5.87;2.90;;;6.00;99.90;;;;;;5033249;28;20345;-65
2020/12/14 04:05:56;;;;;;;6.37;2.80;;;6.20;99.90;;;;;;5034255;28;20660;-64
2020/12/14 04:08:22;;;;;;;3.53;3.23;;;6.20;99.90;;;;;;5032945;28;20302;-64
2020/12/14 04:10:48;;;;;;;4.17;2.20;;;6.30;99.90;;;;;;5033729;28;20180;-65
2020/12/14 04:13:13;;;;;;;2.97;2.20;;;6.40;99.90;;;;;;5032883;28;20195;-64
2020/12/14 04:15:39;;;;;;;6.67;2.50;;;6.40;99.90;;;;;;5034019;28;20175;-65
2020/12/14 04:18:05;;;;;;;6.27;2.57;;;6.50;99.90;;;;;;5033850;28;20254;-65
2020/12/14 04:20:31;;;;;;;5.80;2.30;;;6.50;99.90;;;;;;5033500;28;20294;-65
2020/12/14 04:22:57;;;;;;;3.87;3.03;;;6.40;99.90;;;;;;5033956;28;20215;-65
2020/12/14 04:25:23;;;;;;;5.77;2.33;;;6.40;99.90;;;;;;5033702;28;20742;-65
2020/12/14 04:27:48;;;;;;;4.83;2.10;;;6.30;99.90;;;;;;5033902;28;20242;-65
2020/12/14 04:30:14;;;;;;;3.20;2.03;;;6.30;99.90;;;;;;5033438;28;20194;-64
2020/12/14 04:32:40;;;;;;;2.57;2.20;;;6.40;99.90;;;;;;5033966;28;20219;-65
2020/12/14 04:35:06;;;;;;;3.30;2.33;;;6.40;99.90;;;;;;5033562;28;20763;-65
2020/12/14 04:37:32;;;;;;;7.40;2.67;;;6.40;99.90;;;;;;5033803;28;20625;-65
2020/12/14 04:39:57;;;;;;;6.57;2.60;;;6.50;99.90;;;;;;5033232;28;20233;-65
2020/12/14 04:42:23;;;;;;;3.20;2.10;;;6.60;99.90;;;;;;5033583;28;20192;-64
2020/12/14 04:44:53;;;;;;;2.97;2.20;;;6.60;99.90;;;;;;5033385;28;20183;-64
2020/12/14 04:47:19;;;;;;;3.77;2.50;;;6.60;99.90;;;;;;5032260;28;20199;-64
2020/12/14 04:49:47;;;;;;;3.83;2.13;;;6.70;99.90;;;;;;5033292;28;20183;-64
2020/12/14 04:52:14;;;;;;;5.17;2.73;;;6.70;99.90;;;;;;5033234;28;20282;-64
2020/12/14 04:54:40;;;;;;;3.33;2.20;;;6.70;99.90;;;;;;5033186;28;20200;-64
2020/12/14 04:57:10;;;;;;;6.17;2.03;;;6.70;99.90;;;;;;5032858;28;20167;-64
2020/12/14 04:59:36;;;;;;;6.00;2.17;;;6.70;99.90;;;;;;5033053;28;20287;-64
2020/12/14 05:02:09;;;;;;;3.70;2.50;;;6.70;99.90;;;;;;5061606;22;20313;-64
2020/12/14 05:04:37;;;;;;;3.37;2.47;;;6.70;99.90;;;;;;5055502;28;20225;-64
2020/12/14 05:07:03;;;;;;;3.20;2.27;;;6.70;99.90;;;;;;5073021;28;20166;-64
2020/12/14 05:09:28;;;;;;;2.57;2.33;;;6.70;99.90;;;;;;5071795;28;20183;-64
2020/12/14 05:11:54;;;;;;;6.53;2.50;;;6.70;99.90;;;;;;5056162;28;20264;-64
2020/12/14 05:14:22;;;;;;;2.93;2.53;;;6.80;99.90;;;;;;5052951;28;20167;-64
2020/12/14 05:16:49;;;;;;;3.90;2.20;;;6.80;99.90;;;;;;5052783;28;20317;-64
2020/12/14 05:19:21;;;;;;;3.83;2.20;;;6.80;99.90;;;;;;5052781;28;20205;-64
2020/12/14 05:21:48;;;;;;;6.37;2.30;;;6.80;99.90;;;;;;5052155;28;20674;-64
2020/12/14 05:24:28;;;;;;;4.73;2.70;;;6.80;99.90;;;;;;5052767;28;20174;-64
2020/12/14 05:26:55;;;;;;;4.73;2.77;;;6.80;99.90;;;;;;5052557;28;20479;-64
2020/12/14 05:29:29;;;;;;;5.07;2.50;;;6.80;99.90;;;;;;5052688;28;20350;-64
2020/12/14 05:32:06;;;;;;;4.53;2.30;;;6.80;99.90;;;;;;5052037;28;20788;-64
2020/12/14 05:34:33;;;;;;;4.17;2.90;;;6.70;99.90;;;;;;5052174;28;20179;-64
2020/12/14 05:37:00;;;;;;;5.13;2.87;;;6.60;99.90;;;;;;5052450;28;20167;-64
2020/12/14 05:39:28;;;;;;;6.80;3.47;;;6.60;99.90;;;;;;5052271;28;20691;-64
2020/12/14 05:41:53;;;;;;;6.67;3.70;;;6.50;99.90;;;;;;5051081;28;20260;-64
2020/12/14 05:44:28;;;;;;;6.80;3.20;;;6.50;99.90;;;;;;5052127;28;20257;-64
2020/12/14 05:46:54;;;;;;;6.53;3.50;;;6.40;99.90;;;;;;5052191;28;20166;-64
2020/12/14 05:49:20;;;;;;;9.67;4.70;;;6.40;99.90;;;;;;5051971;28;20182;-64
2020/12/14 05:51:46;;;;;;;6.70;3.93;;;6.30;99.90;;;;;;5051854;28;20555;-64
2020/12/14 05:54:13;;;;;;;4.60;2.57;;;6.30;99.90;;;;;;5051993;28;20178;-64
2020/12/14 05:56:43;;;;;;;10.70;3.37;;;6.30;99.90;;;;;;5050980;28;20594;-64
2020/12/14 05:59:09;;;;;;;4.17;3.00;;;6.30;99.90;;;;;;5051887;28;20612;-64
2020/12/14 06:01:35;;;;;;;5.17;3.03;;;6.30;99.90;;;;;;5051845;28;20171;-64
2020/12/14 06:04:02;;;;;;;5.67;3.37;;;6.40;99.90;;;;;;5051852;28;20185;-64
2020/12/14 06:06:35;;;;;;;7.50;3.23;;;6.40;99.90;;;;;;5051878;28;20185;-64
2020/12/14 06:09:05;;;;;;;9.63;3.10;;;6.40;99.90;;;;;;5051680;28;20428;-64
2020/12/14 06:11:35;;;;;;;6.43;3.60;;;6.30;99.90;;;;;;5051591;28;20171;-64
2020/12/14 06:14:02;;;;;;;4.03;2.53;;;6.30;99.90;;;;;;5051991;28;20178;-64
2020/12/14 06:16:35;;;;;;;5.63;3.57;;;6.30;99.90;;;;;;5051787;28;20258;-64
2020/12/14 06:19:01;;;;;;;4.60;2.43;;;6.30;99.90;;;;;;5051157;28;20287;-64
2020/12/14 06:21:47;;;;;;;6.60;2.83;;;6.30;99.90;;;;;;5051430;28;20679;-64
2020/12/14 06:24:21;;;;;;;4.60;2.37;;;6.30;99.90;;;;;;5051535;28;20174;-64
2020/12/14 06:26:47;;;;;;;8.07;3.80;;;6.30;99.90;;;;;;5051770;28;20213;-64
2020/12/14 06:29:30;;;;;;;8.07;2.97;;;6.30;99.90;;;;;;5051231;28;20694;-64
2020/12/14 06:31:55;;;;;;;8.80;3.10;;;6.30;99.90;;;;;;5051229;28;20280;-64
2020/12/14 06:34:33;;;;;;;5.43;2.43;;;6.30;99.90;;;;;;5051246;28;20261;-64
2020/12/14 06:37:03;;;;;;;3.03;2.50;;;6.40;99.90;;;;;;5051519;28;20224;-64
2020/12/14 06:39:37;;;;;;;6.70;2.80;;;6.40;99.90;;;;;;5049845;28;20225;-65
2020/12/14 06:42:24;;;;;;;7.83;3.00;;;6.50;99.90;;;;;;5049836;28;20317;-64
2020/12/14 06:44:52;;;;;;;8.13;3.20;;;6.60;99.90;;;;;;5049790;28;20194;-64
2020/12/14 06:47:19;;;;;;;5.80;2.80;;;6.70;99.90;;;;;;5051077;28;20254;-64
2020/12/14 06:49:46;;;;;;;4.07;2.57;;;6.80;99.90;;;;;;5051000;28;20179;-64
2020/12/14 06:52:12;;;;;;;2.87;2.67;;;6.90;99.90;;;;;;5050862;28;20191;-64
2020/12/14 06:54:45;;;;;;;2.77;2.53;;;6.90;99.90;;;;;;5050964;28;20194;-64
2020/12/14 06:57:15;;;;;;;2.73;2.53;;;7.00;99.90;;;;;;5051212;28;20651;-63
2020/12/14 06:59:52;;;;;;;7.97;2.80;;;7.00;99.90;;;;;;5049568;28;20234;-64
2020/12/14 07:02:18;;;;;;;3.47;2.30;;;7.00;99.90;;;;;;5050834;28;20207;-64
2020/12/14 07:04:44;;;;;;;4.17;2.77;;;7.10;99.90;;;;;;5051117;28;20179;-64
2020/12/14 07:07:09;;;;;;;5.40;2.90;;;7.10;99.90;;;;;;5051041;28;20163;-64
2020/12/14 07:09:38;;;;;;;5.50;2.87;;;7.10;99.90;;;;;;5050558;28;20185;-64
2020/12/14 07:12:09;;;;;;;3.83;2.87;;;7.10;99.90;;;;;;5050385;28;20197;-64
2020/12/14 07:14:48;;;;;;;3.50;2.63;;;7.20;99.90;;;;;;5050972;28;20178;-64
2020/12/14 07:17:40;;;;;;;4.77;2.57;;;7.20;99.90;;;;;;5050594;28;20277;-64
2020/12/14 07:20:06;;;;;;;3.90;2.60;;;7.20;99.90;;;;;;5045070;28;20214;-64
2020/12/14 07:22:47;;;;;;;3.33;2.63;;;7.20;99.90;;;;;;5054759;28;20199;-64
2020/12/14 07:25:21;;;;;;;4.03;2.83;;;7.20;99.90;;;;;;5054918;28;20166;-64
2020/12/14 07:27:47;;;;;;;4.77;2.70;;;7.20;99.90;;;;;;5054501;28;20169;-64
2020/12/14 07:30:12;;;;;;;7.40;2.97;;;7.20;99.90;;;;;;5054669;28;20186;-64
2020/12/14 07:32:39;;;;;;;4.97;2.90;;;7.10;99.90;;;;;;5054256;28;20198;-64
2020/12/14 07:35:07;;;;;;;6.17;2.43;;;7.10;99.90;;;;;;5054795;28;20585;-63
2020/12/14 07:37:33;;;;;;;3.70;2.83;;;7.10;99.90;;;;;;5054392;28;20179;-64
2020/12/14 07:39:59;;;;;;;4.60;2.57;;;7.00;99.90;;;;;;5053988;28;20199;-64
2020/12/14 07:42:27;;;;;;;5.93;2.90;;;7.00;99.90;;;;;;5053713;28;20190;-65
2020/12/14 07:45:09;;;;;;;3.20;2.47;;;7.00;99.90;;;;;;5054308;28;20186;-64
2020/12/14 07:47:35;;;;;;;5.33;2.57;;;7.00;99.90;;;;;;5054307;28;20171;-64
2020/12/14 07:50:15;;;;;;;6.80;2.70;;;6.90;99.90;;;;;;5053805;28;20174;-64
2020/12/14 07:52:42;;;;;;;3.47;2.60;;;6.90;99.90;;;;;;5054327;28;20306;-64
2020/12/14 07:55:10;;;;;;;8.67;3.73;;;7.00;99.90;;;;;;5052728;28;20266;-64
2020/12/14 07:57:38;;;;;;;6.63;2.97;;;7.00;99.90;;;;;;5053602;28;20555;-64
2020/12/14 08:00:14;;;;;;;6.20;3.50;;;7.10;99.90;;;;;;5053699;28;20195;-64
2020/12/14 08:02:42;;;;;;;3.03;2.50;;;7.10;99.90;;;;;;5054182;28;20612;-64
2020/12/14 08:05:12;;;;;;;3.13;2.67;;;7.10;99.90;;;;;;5052649;28;20543;-65
2020/12/14 08:07:45;;;;;;;7.30;2.37;;;7.20;99.90;;;;;;5052492;28;20640;-64
2020/12/14 08:10:12;;;;;;;3.43;2.50;;;7.20;99.90;;;;;;5052444;28;20190;-64
2020/12/14 08:12:40;;;;;;;8.63;2.80;;;7.10;99.90;;;;;;5053713;28;20195;-65
2020/12/14 08:15:12;;;;;;;4.17;2.30;;;7.10;99.90;;;;;;5054238;28;20179;-64
2020/12/14 08:17:39;;;;;;;3.80;2.90;;;7.20;99.90;;;;;;5053625;28;20218;-64
2020/12/14 08:20:06;;;;;;;3.40;2.80;;;7.10;99.90;;;;;;5053622;28;20194;-64
2020/12/14 08:22:33;;;;;;;4.17;2.93;;;7.10;99.90;;;;;;5053479;28;20678;-64
2020/12/14 08:24:59;;;;;;;6.30;3.13;;;7.20;99.90;;;;;;5053965;28;20530;-64
2020/12/14 08:27:52;;;;;;;4.57;3.23;;;7.20;99.90;;;;;;5052053;28;20163;-64
2020/12/14 08:30:22;;;;;;;6.23;2.83;;;7.20;99.90;;;;;;5053685;28;20171;-65
2020/12/14 08:33:16;;;;;;;3.87;2.70;;;7.20;99.90;;;;;;5052333;28;20194;-64
2020/12/14 08:35:51;;;;;;;2.70;2.40;;;7.20;99.90;;;;;;5053755;28;20186;-65
2020/12/14 08:38:24;;;;;;;5.87;2.93;;;7.30;99.90;;;;;;5053076;28;20182;-64
2020/12/14 08:41:01;;;;;;;4.13;2.80;;;7.30;99.90;;;;;;5053336;28;20197;-64
2020/12/14 08:43:28;;;;;;;3.97;2.73;;;7.30;99.90;;;;;;5052233;28;20569;-64
2020/12/14 08:45:57;;;;;;;3.00;2.70;;;7.30;99.90;;;;;;5053533;28;20179;-64
2020/12/14 08:48:22;;;;;;;4.90;2.50;;;7.30;99.90;;;;;;5052969;28;20182;-64
2020/12/14 08:50:48;;;;;;;6.07;3.20;;;7.40;99.90;;;;;;5053217;28;20182;-64
2020/12/14 08:53:23;;;;;;;4.37;2.57;;;7.40;99.90;;;;;;5052933;28;20194;-64
2020/12/14 08:55:48;;;;;;;6.70;3.53;;;7.40;99.90;;;;;;5053451;28;20178;-64
2020/12/14 08:58:14;;;;;;;4.23;3.10;;;7.40;99.90;;;;;;5052861;28;20591;-64
2020/12/14 09:00:39;;;;;;;4.30;3.37;;;7.40;99.90;;;;;;5052678;28;20217;-64
2020/12/14 09:03:05;;;;;;;8.13;3.30;;;7.40;99.90;;;;;;5052625;28;20285;-64
2020/12/14 09:05:35;;;;;;;8.03;3.33;;;7.40;99.90;;;;;;5052843;28;20179;-64
2020/12/14 09:08:15;;;;;;;4.03;3.60;;;7.30;99.90;;;;;;5052777;28;20658;-65
2020/12/14 09:10:41;;;;;;;6.10;3.70;;;7.30;99.90;;;;;;5032776;28;20278;-64
2020/12/14 09:13:07;;;;;;;6.50;3.47;;;7.40;99.90;;;;;;5033173;28;20338;-64
2020/12/14 09:15:34;;;;;;;7.60;3.73;;;7.40;99.90;;;;;;5052674;28;20187;-64
2020/12/14 09:18:06;;;;;;;4.23;3.17;;;7.40;99.90;;;;;;5052597;28;20193;-64
2020/12/14 09:20:35;;;;;;;8.60;3.93;;;7.50;99.90;;;;;;5032331;28;20215;-64
2020/12/14 09:23:01;;;;;;;6.53;3.97;;;7.50;99.90;;;;;;5032809;28;20226;-64
2020/12/14 09:25:27;;;;;;;4.77;3.63;;;7.60;99.90;;;;;;5052263;28;20183;-64
2020/12/14 09:27:53;;;;;;;6.57;3.57;;;7.60;99.90;;;;;;5052253;28;20183;-64
2020/12/14 09:30:19;;;;;;;6.37;3.73;;;7.60;99.90;;;;;;5052034;28;20185;-65
2020/12/14 09:32:45;;;;;;;6.53;4.50;;;7.70;99.90;;;;;;5052504;28;20199;-64
2020/12/14 09:35:10;;;;;;;6.97;3.60;;;7.80;99.90;;;;;;5052193;28;20178;-64
2020/12/14 09:37:36;;;;;;;9.13;4.33;;;7.90;99.90;;;;;;5052317;28;20714;-64
2020/12/14 09:40:03;;;;;;;6.17;3.13;;;7.90;99.90;;;;;;5050858;28;20206;-64
2020/12/14 09:42:29;;;;;;;7.60;3.23;;;8.20;99.90;;;;;;5050873;28;20230;-64
2020/12/14 09:44:56;;;;;;;4.40;2.83;;;8.30;99.90;;;;;;5052114;28;20175;-64
2020/12/14 09:47:22;;;;;;;6.93;2.83;;;8.40;99.90;;;;;;5051786;28;20355;-64
2020/12/14 09:49:47;;;;;;;5.00;2.77;;;8.40;99.90;;;;;;5052517;28;20179;-64
2020/12/14 09:52:13;;;;;;;4.80;3.03;;;8.40;99.90;;;;;;5051645;28;20260;-64
2020/12/14 09:54:39;;;;;;;5.50;2.77;;;8.40;99.90;;;;;;5052043;28;20252;-65
2020/12/14 09:57:04;;;;;;;4.33;2.60;;;8.50;99.90;;;;;;5052218;28;20179;-64
2020/12/14 09:59:30;;;;;;;4.53;2.60;;;8.60;99.90;;;;;;5050299;28;20663;-64
2020/12/14 10:01:55;;;;;;;4.97;2.80;;;8.60;99.90;;;;;;5051791;28;20329;-64
2020/12/14 10:04:21;;;;;;;3.87;2.83;;;8.60;99.90;;;;;;5050371;28;20185;-64
2020/12/14 10:06:47;;;;;;;6.20;2.97;;;8.60;99.90;;;;;;5051956;28;20228;-64
2020/12/14 10:09:13;;;;;;;4.43;2.37;;;8.60;99.90;;;;;;5051734;28;20208;-65
2020/12/14 10:11:39;;;;;;;2.93;2.63;;;8.60;99.90;;;;;;5051710;28;20210;-65
2020/12/14 10:14:05;;;;;;;4.47;2.47;;;8.70;99.90;;;;;;5050576;28;20182;-65
2020/12/14 10:16:31;;;;;;;2.40;2.13;;;8.80;99.90;;;;;;5051329;28;20190;-64
2020/12/14 10:18:56;;;;;;;3.97;2.83;;;9.00;99.90;;;;;;5051767;28;20201;-64
2020/12/14 10:21:22;;;;;;;5.40;2.53;;;9.10;99.90;;;;;;5050972;28;20182;-64
2020/12/14 10:23:48;;;;;;;5.10;2.37;;;9.10;99.90;;;;;;5051854;28;20660;-64
2020/12/14 10:26:14;;;;;;;4.30;2.80;;;9.20;99.90;;;;;;5051306;28;20530;-64
2020/12/14 10:28:40;;;;;;;5.57;2.20;;;9.20;99.90;;;;;;5051719;28;20195;-64
2020/12/14 10:31:07;;;;;;;3.97;2.13;;;9.30;99.90;;;;;;5050947;28;20187;-64
2020/12/14 10:33:33;;;;;;;7.83;2.77;;;9.40;99.90;;;;;;5051436;28;20196;-64
2020/12/14 10:36:10;;;;;;;6.07;2.30;;;9.50;99.90;;;;;;5051254;28;20546;-64
2020/12/14 10:38:37;;;;;;;5.03;2.43;;;9.70;99.90;;;;;;5051351;28;20223;-64
2020/12/14 10:41:03;;;;;;;6.23;2.30;;;9.80;99.90;;;;;;5050950;28;20256;-64
2020/12/14 10:43:30;;;;;;;3.27;2.47;;;10.00;99.90;;;;;;5050482;28;20178;-64
2020/12/14 10:45:56;;;;;;;4.97;3.73;;;10.10;99.90;;;;;;5051171;28;20232;-64
2020/12/14 10:48:22;;;;;;;5.33;2.67;;;10.30;99.90;;;;;;5050724;28;20177;-64
2020/12/14 10:50:48;;;;;;;3.33;2.13;;;10.60;99.90;;;;;;5051157;28;20171;-64
2020/12/14 10:53:13;;;;;;;7.50;2.50;;;10.70;99.90;;;;;;5050970;28;20199;-64
2020/12/14 10:55:39;;;;;;;3.80;2.30;;;10.70;99.90;;;;;;5050559;28;20175;-65
2020/12/14 10:58:04;;;;;;;6.07;3.07;;;10.60;99.90;;;;;;5050805;28;20626;-64
2020/12/14 11:00:30;;;;;;;3.27;2.47;;;10.50;99.90;;;;;;5050749;28;20281;-64
2020/12/14 11:02:57;;;;;;;5.63;2.57;;;10.40;99.90;;;;;;5076406;22;20599;-65
2020/12/14 11:05:23;;;;;;;4.90;2.53;;;10.40;99.90;;;;;;5071561;28;20216;-64
2020/12/14 11:07:49;;;;;;;3.87;2.57;;;10.40;99.90;;;;;;5071773;28;20166;-64
2020/12/14 11:10:15;;;;;;;2.87;2.20;;;10.30;99.90;;;;;;5051819;28;20174;-64
2020/12/14 11:12:40;;;;;;;4.57;2.43;;;10.20;99.90;;;;;;5051604;28;20636;-63
2020/12/14 11:15:09;;;;;;;4.63;2.47;;;10.20;99.90;;;;;;5051490;28;20614;-65
2020/12/14 11:17:37;;;;;;;5.07;2.57;;;10.10;99.90;;;;;;5051439;28;20175;-65
2020/12/14 11:20:08;;;;;;;3.87;2.50;;;10.10;99.90;;;;;;5051135;28;20660;-65
2020/12/14 11:22:38;;;;;;;6.97;2.93;;;10.10;99.90;;;;;;5051670;28;20207;-65
2020/12/14 11:25:05;;;;;;;2.07;1.83;;;10.10;99.90;;;;;;5052526;28;20655;-65
2020/12/14 11:27:31;;;;;;;2.77;2.23;;;10.10;99.90;;;;;;5051382;28;20178;-66
2020/12/14 11:29:57;;;;;;;5.53;2.40;;;10.10;99.90;;;;;;5051175;28;20549;-64
2020/12/14 11:32:22;;;;;;;5.07;2.60;;;10.10;99.90;;;;;;5051565;28;20197;-65
2020/12/14 11:34:48;;;;;;;3.47;2.30;;;10.20;99.90;;;;;;5049534;28;20174;-65
2020/12/14 11:37:14;;;;;;;4.37;2.50;;;10.20;99.90;;;;;;5049831;28;20181;-64
2020/12/14 11:39:39;;;;;;;2.80;2.23;;;10.20;99.90;;;;;;5051241;28;20206;-64
2020/12/14 11:42:05;;;;;;;4.03;2.53;;;10.40;99.90;;;;;;5049933;28;20651;-66
2020/12/14 11:44:30;;;;;;;4.07;2.47;;;10.50;99.90;;;;;;5051578;28;20317;-65
2020/12/14 11:46:56;;;;;;;4.63;2.40;;;10.60;99.90;;;;;;5051200;28;20703;-64
2020/12/14 11:49:21;;;;;;;3.53;2.70;;;10.60;99.90;;;;;;5051350;28;20182;-64
2020/12/14 11:51:48;;;;;;;6.13;2.17;;;10.70;99.90;;;;;;5051172;28;20640;-66
2020/12/14 11:54:14;;;;;;;5.30;2.53;;;10.90;99.90;;;;;;5051380;28;20197;-63
2020/12/14 11:56:40;;;;;;;3.70;2.10;;;11.40;99.90;;;;;;5049481;28;20214;-65
2020/12/14 11:59:05;;;;;;;4.93;2.37;;;11.70;99.90;;;;;;5050772;28;20209;-65
2020/12/14 12:01:31;;;;;;;2.60;2.07;;;11.80;99.90;;;;;;5050201;28;20167;-64
2020/12/14 12:03:57;;;;;;;4.90;2.17;;;11.70;99.90;;;;;;5050835;28;20747;-65
2020/12/14 12:06:32;;;;;;;2.73;2.07;;;11.60;99.90;;;;;;5051479;28;20199;-65
2020/12/14 12:08:58;;;;;;;2.40;2.10;;;11.50;99.90;;;;;;5054015;28;20635;-66
2020/12/14 12:11:23;;;;;;;4.50;2.50;;;11.40;99.90;;;;;;5054294;28;20270;-65
2020/12/14 12:13:50;;;;;;;4.17;2.53;;;11.30;99.90;;;;;;5054070;28;20274;-66
2020/12/14 12:16:15;;;;;;;2.97;2.20;;;11.30;99.90;;;;;;5054265;28;20258;-66
2020/12/14 12:18:42;;;;;;;2.93;2.10;;;11.20;99.90;;;;;;5053962;28;20270;-65
2020/12/14 12:21:09;;;;;;;4.03;2.20;;;11.10;99.90;;;;;;5054000;28;20551;-66
2020/12/14 12:23:35;;;;;;;4.83;3.20;;;11.10;99.90;;;;;;5053601;28;20191;-65
2020/12/14 12:26:01;;;;;;;4.10;2.77;;;11.10;99.90;;;;;;5054279;28;20171;-65
2020/12/14 12:28:27;;;;;;;3.70;2.57;;;11.10;99.90;;;;;;5053785;28;20258;-65
2020/12/14 12:30:52;;;;;;;3.07;2.07;;;11.10;99.90;;;;;;5053741;28;20628;-65
2020/12/14 12:33:18;;;;;;;3.80;2.40;;;11.10;99.90;;;;;;5053904;28;20203;-66
2020/12/14 12:35:43;;;;;;;3.83;2.10;;;11.20;99.90;;;;;;5054070;28;20647;-66
2020/12/14 12:38:09;;;;;;;4.07;2.10;;;11.20;99.90;;;;;;5054152;28;20194;-66
2020/12/14 12:40:35;;;;;;;4.83;2.40;;;11.40;99.90;;;;;;5053031;28;20227;-66
2020/12/14 12:43:01;;;;;;;2.87;2.30;;;11.60;99.90;;;;;;5052887;28;20666;-65
2020/12/14 12:45:26;;;;;;;2.53;2.23;;;11.80;99.90;;;;;;5053222;28;20175;-67
2020/12/14 12:47:52;;;;;;;3.10;2.00;;;12.00;99.90;;;;;;5053573;28;20186;-66
2020/12/14 12:50:18;;;;;;;2.37;1.90;;;12.10;99.90;;;;;;5053038;28;20171;-65
2020/12/14 12:52:43;;;;;;;1.90;1.70;;;12.10;99.90;;;;;;5053815;28;20191;-65
2020/12/14 12:55:09;;;;;;;6.30;2.40;;;12.10;99.90;;;;;;5053514;28;20175;-64
2020/12/14 12:57:34;;;;;;;4.13;2.50;;;12.00;99.90;;;;;;5052847;28;20228;-66